sensor_id;sensor_type;location;lat;lon;timestamp;P1;durP1;ratioP1;P2;durP2;ratioP2
81697;SDS011;71109;52.514;5.708;2023-11-21T00:01:44;120.17;;;26.17;;
81697;SDS011;71109;52.514;5.708;2023-11-21T00:04:09;119.07;;;24.53;;
81697;SDS011;71109;52.514;5.708;2023-11-21T00:06:34;121.57;;;27.17;;
81697;SDS011;71109;52.514;5.708;2023-11-21T00:09:00;119.45;;;24.30;;
81697;SDS011;71109;52.514;5.708;2023-11-21T00:11:25;107.85;;;24.30;;
81697;SDS011;71109;52.514;5.708;2023-11-21T00:13:50;98.93;;;22.10;;
81697;SDS011;71109;52.514;5.708;2023-11-21T00:16:16;109.87;;;24.30;;
81697;SDS011;71109;52.514;5.708;2023-11-21T00:18:41;96.83;;;23.87;;
81697;SDS011;71109;52.514;5.708;2023-11-21T00:21:07;101.35;;;22.73;;
81697;SDS011;71109;52.514;5.708;2023-11-21T00:23:34;102.00;;;23.70;;
81697;SDS011;71109;52.514;5.708;2023-11-21T00:25:59;84.38;;;21.15;;
81697;SDS011;71109;52.514;5.708;2023-11-21T00:28:24;80.63;;;20.10;;
81697;SDS011;71109;52.514;5.708;2023-11-21T00:30:50;91.95;;;20.42;;
81697;SDS011;71109;52.514;5.708;2023-11-21T00:33:15;84.03;;;20.30;;
81697;SDS011;71109;52.514;5.708;2023-11-21T00:35:41;80.80;;;20.48;;
81697;SDS011;71109;52.514;5.708;2023-11-21T00:38:06;75.93;;;17.90;;
81697;SDS011;71109;52.514;5.708;2023-11-21T00:40:33;98.03;;;21.02;;
81697;SDS011;71109;52.514;5.708;2023-11-21T00:42:58;86.93;;;20.03;;
81697;SDS011;71109;52.514;5.708;2023-11-21T00:45:24;89.60;;;21.27;;
81697;SDS011;71109;52.514;5.708;2023-11-21T00:47:49;101.67;;;22.40;;
81697;SDS011;71109;52.514;5.708;2023-11-21T00:50:14;90.40;;;23.83;;
81697;SDS011;71109;52.514;5.708;2023-11-21T00:52:40;93.45;;;22.95;;
81697;SDS011;71109;52.514;5.708;2023-11-21T00:55:06;80.78;;;22.80;;
81697;SDS011;71109;52.514;5.708;2023-11-21T00:57:32;75.72;;;21.13;;
81697;SDS011;71109;52.514;5.708;2023-11-21T00:59:58;77.65;;;20.50;;
81697;SDS011;71109;52.514;5.708;2023-11-21T01:02:24;83.35;;;21.02;;
81697;SDS011;71109;52.514;5.708;2023-11-21T01:04:50;72.72;;;20.42;;
81697;SDS011;71109;52.514;5.708;2023-11-21T01:07:15;71.17;;;20.83;;
81697;SDS011;71109;52.514;5.708;2023-11-21T01:09:40;80.03;;;21.63;;
81697;SDS011;71109;52.514;5.708;2023-11-21T01:12:06;89.63;;;21.23;;
81697;SDS011;71109;52.514;5.708;2023-11-21T01:14:31;79.55;;;20.83;;
81697;SDS011;71109;52.514;5.708;2023-11-21T01:16:57;94.63;;;24.25;;
81697;SDS011;71109;52.514;5.708;2023-11-21T01:19:22;95.47;;;22.08;;
81697;SDS011;71109;52.514;5.708;2023-11-21T01:21:47;90.30;;;21.50;;
81697;SDS011;71109;52.514;5.708;2023-11-21T01:24:13;98.22;;;23.10;;
81697;SDS011;71109;52.514;5.708;2023-11-21T01:26:38;87.30;;;24.50;;
81697;SDS011;71109;52.514;5.708;2023-11-21T01:29:04;92.97;;;23.17;;
81697;SDS011;71109;52.514;5.708;2023-11-21T01:31:29;96.57;;;23.58;;
81697;SDS011;71109;52.514;5.708;2023-11-21T01:33:55;83.55;;;21.02;;
81697;SDS011;71109;52.514;5.708;2023-11-21T01:36:21;79.68;;;21.67;;
81697;SDS011;71109;52.514;5.708;2023-11-21T01:38:46;84.80;;;21.80;;
81697;SDS011;71109;52.514;5.708;2023-11-21T01:41:13;83.18;;;22.98;;
81697;SDS011;71109;52.514;5.708;2023-11-21T01:43:39;99.50;;;24.80;;
81697;SDS011;71109;52.514;5.708;2023-11-21T01:46:04;93.70;;;25.13;;
81697;SDS011;71109;52.514;5.708;2023-11-21T01:48:31;86.75;;;24.33;;
81697;SDS011;71109;52.514;5.708;2023-11-21T01:50:56;86.10;;;24.42;;
81697;SDS011;71109;52.514;5.708;2023-11-21T01:53:23;86.75;;;23.77;;
81697;SDS011;71109;52.514;5.708;2023-11-21T01:55:50;98.45;;;23.40;;
81697;SDS011;71109;52.514;5.708;2023-11-21T01:58:15;100.20;;;24.15;;
81697;SDS011;71109;52.514;5.708;2023-11-21T02:00:41;105.10;;;26.10;;
81697;SDS011;71109;52.514;5.708;2023-11-21T02:03:06;99.37;;;26.13;;
81697;SDS011;71109;52.514;5.708;2023-11-21T02:05:32;93.40;;;24.75;;
81697;SDS011;71109;52.514;5.708;2023-11-21T02:07:57;88.20;;;24.65;;
81697;SDS011;71109;52.514;5.708;2023-11-21T02:10:23;88.87;;;23.93;;
81697;SDS011;71109;52.514;5.708;2023-11-21T02:12:49;79.13;;;21.35;;
81697;SDS011;71109;52.514;5.708;2023-11-21T02:15:18;84.05;;;21.52;;
81697;SDS011;71109;52.514;5.708;2023-11-21T02:17:49;81.13;;;22.00;;
81697;SDS011;71109;52.514;5.708;2023-11-21T02:20:19;80.63;;;23.05;;
81697;SDS011;71109;52.514;5.708;2023-11-21T02:22:52;81.72;;;21.52;;
81697;SDS011;71109;52.514;5.708;2023-11-21T02:25:22;74.25;;;20.20;;
81697;SDS011;71109;52.514;5.708;2023-11-21T02:27:52;69.50;;;19.33;;
81697;SDS011;71109;52.514;5.708;2023-11-21T02:30:19;69.28;;;20.30;;
81697;SDS011;71109;52.514;5.708;2023-11-21T02:32:44;72.00;;;20.40;;
81697;SDS011;71109;52.514;5.708;2023-11-21T02:35:10;74.63;;;22.15;;
81697;SDS011;71109;52.514;5.708;2023-11-21T02:37:37;83.05;;;22.20;;
81697;SDS011;71109;52.514;5.708;2023-11-21T02:40:03;80.72;;;22.25;;
81697;SDS011;71109;52.514;5.708;2023-11-21T02:42:31;86.85;;;22.08;;
81697;SDS011;71109;52.514;5.708;2023-11-21T02:44:56;84.78;;;22.98;;
81697;SDS011;71109;52.514;5.708;2023-11-21T02:47:22;76.18;;;21.40;;
81697;SDS011;71109;52.514;5.708;2023-11-21T02:49:48;95.10;;;23.00;;
81697;SDS011;71109;52.514;5.708;2023-11-21T02:52:13;82.25;;;22.42;;
81697;SDS011;71109;52.514;5.708;2023-11-21T02:54:38;96.37;;;23.70;;
81697;SDS011;71109;52.514;5.708;2023-11-21T02:57:04;70.15;;;22.15;;
81697;SDS011;71109;52.514;5.708;2023-11-21T02:59:29;84.30;;;21.88;;
81697;SDS011;71109;52.514;5.708;2023-11-21T03:01:54;89.38;;;21.85;;
81697;SDS011;71109;52.514;5.708;2023-11-21T03:04:21;78.40;;;21.50;;
81697;SDS011;71109;52.514;5.708;2023-11-21T03:06:47;68.03;;;20.10;;
81697;SDS011;71109;52.514;5.708;2023-11-21T03:09:12;72.67;;;20.60;;
81697;SDS011;71109;52.514;5.708;2023-11-21T03:11:38;78.15;;;22.88;;
81697;SDS011;71109;52.514;5.708;2023-11-21T03:14:03;88.93;;;21.65;;
81697;SDS011;71109;52.514;5.708;2023-11-21T03:16:28;87.05;;;21.65;;
81697;SDS011;71109;52.514;5.708;2023-11-21T03:18:54;97.90;;;24.17;;
81697;SDS011;71109;52.514;5.708;2023-11-21T03:21:19;69.70;;;22.88;;
81697;SDS011;71109;52.514;5.708;2023-11-21T03:23:45;88.63;;;23.30;;
81697;SDS011;71109;52.514;5.708;2023-11-21T03:26:13;76.97;;;22.57;;
81697;SDS011;71109;52.514;5.708;2023-11-21T03:28:39;64.55;;;20.50;;
81697;SDS011;71109;52.514;5.708;2023-11-21T03:31:04;78.55;;;21.65;;
81697;SDS011;71109;52.514;5.708;2023-11-21T03:33:31;82.35;;;23.70;;
81697;SDS011;71109;52.514;5.708;2023-11-21T03:35:57;78.22;;;21.63;;
81697;SDS011;71109;52.514;5.708;2023-11-21T03:38:22;72.18;;;21.65;;
81697;SDS011;71109;52.514;5.708;2023-11-21T03:40:48;64.88;;;21.10;;
81697;SDS011;71109;52.514;5.708;2023-11-21T03:43:14;83.30;;;19.90;;
81697;SDS011;71109;52.514;5.708;2023-11-21T03:45:39;65.05;;;20.70;;
81697;SDS011;71109;52.514;5.708;2023-11-21T03:48:05;71.55;;;21.23;;
81697;SDS011;71109;52.514;5.708;2023-11-21T03:50:31;71.13;;;20.38;;
81697;SDS011;71109;52.514;5.708;2023-11-21T03:52:56;77.80;;;19.83;;
81697;SDS011;71109;52.514;5.708;2023-11-21T03:55:22;66.47;;;20.30;;
81697;SDS011;71109;52.514;5.708;2023-11-21T03:57:49;68.47;;;19.35;;
81697;SDS011;71109;52.514;5.708;2023-11-21T04:00:14;61.03;;;19.20;;
81697;SDS011;71109;52.514;5.708;2023-11-21T04:02:40;53.33;;;19.10;;
81697;SDS011;71109;52.514;5.708;2023-11-21T04:05:05;61.60;;;18.85;;
81697;SDS011;71109;52.514;5.708;2023-11-21T04:07:32;61.88;;;19.42;;
81697;SDS011;71109;52.514;5.708;2023-11-21T04:09:57;61.45;;;19.40;;
81697;SDS011;71109;52.514;5.708;2023-11-21T04:12:23;59.40;;;18.37;;
81697;SDS011;71109;52.514;5.708;2023-11-21T04:14:48;58.67;;;17.97;;
81697;SDS011;71109;52.514;5.708;2023-11-21T04:17:13;62.63;;;18.52;;
81697;SDS011;71109;52.514;5.708;2023-11-21T04:19:39;73.67;;;21.50;;
81697;SDS011;71109;52.514;5.708;2023-11-21T04:22:04;66.93;;;18.90;;
81697;SDS011;71109;52.514;5.708;2023-11-21T04:24:29;53.50;;;17.70;;
81697;SDS011;71109;52.514;5.708;2023-11-21T04:26:55;63.42;;;19.45;;
81697;SDS011;71109;52.514;5.708;2023-11-21T04:29:20;72.80;;;18.93;;
81697;SDS011;71109;52.514;5.708;2023-11-21T04:31:45;70.97;;;19.43;;
81697;SDS011;71109;52.514;5.708;2023-11-21T04:34:11;71.78;;;18.30;;
81697;SDS011;71109;52.514;5.708;2023-11-21T04:36:36;61.97;;;17.52;;
81697;SDS011;71109;52.514;5.708;2023-11-21T04:39:02;60.65;;;17.23;;
81697;SDS011;71109;52.514;5.708;2023-11-21T04:41:27;63.03;;;19.20;;
81697;SDS011;71109;52.514;5.708;2023-11-21T04:43:53;72.57;;;18.60;;
81697;SDS011;71109;52.514;5.708;2023-11-21T04:46:18;65.50;;;17.48;;
81697;SDS011;71109;52.514;5.708;2023-11-21T04:48:43;65.00;;;19.37;;
81697;SDS011;71109;52.514;5.708;2023-11-21T04:51:09;62.03;;;18.42;;
81697;SDS011;71109;52.514;5.708;2023-11-21T04:53:36;56.03;;;16.48;;
81697;SDS011;71109;52.514;5.708;2023-11-21T04:56:01;64.33;;;18.27;;
81697;SDS011;71109;52.514;5.708;2023-11-21T04:58:28;50.20;;;16.63;;
81697;SDS011;71109;52.514;5.708;2023-11-21T05:00:53;62.20;;;16.27;;
81697;SDS011;71109;52.514;5.708;2023-11-21T05:03:19;60.03;;;19.17;;
81697;SDS011;71109;52.514;5.708;2023-11-21T05:05:44;50.25;;;16.00;;
81697;SDS011;71109;52.514;5.708;2023-11-21T05:08:09;43.78;;;14.00;;
81697;SDS011;71109;52.514;5.708;2023-11-21T05:10:35;51.80;;;15.40;;
81697;SDS011;71109;52.514;5.708;2023-11-21T05:13:03;35.08;;;12.70;;
81697;SDS011;71109;52.514;5.708;2023-11-21T05:15:28;44.42;;;15.45;;
81697;SDS011;71109;52.514;5.708;2023-11-21T05:17:54;54.50;;;15.13;;
81697;SDS011;71109;52.514;5.708;2023-11-21T05:20:20;56.60;;;15.98;;
81697;SDS011;71109;52.514;5.708;2023-11-21T05:22:46;45.58;;;14.85;;
81697;SDS011;71109;52.514;5.708;2023-11-21T05:25:13;40.83;;;14.18;;
81697;SDS011;71109;52.514;5.708;2023-11-21T05:27:39;37.72;;;13.38;;
81697;SDS011;71109;52.514;5.708;2023-11-21T05:30:04;38.60;;;12.55;;
81697;SDS011;71109;52.514;5.708;2023-11-21T05:32:31;40.75;;;13.50;;
81697;SDS011;71109;52.514;5.708;2023-11-21T05:34:56;40.53;;;13.25;;
81697;SDS011;71109;52.514;5.708;2023-11-21T05:37:22;29.60;;;12.90;;
81697;SDS011;71109;52.514;5.708;2023-11-21T05:39:48;29.75;;;11.30;;
81697;SDS011;71109;52.514;5.708;2023-11-21T05:42:13;36.75;;;12.23;;
81697;SDS011;71109;52.514;5.708;2023-11-21T05:44:40;39.97;;;12.17;;
81697;SDS011;71109;52.514;5.708;2023-11-21T05:47:07;35.58;;;12.00;;
81697;SDS011;71109;52.514;5.708;2023-11-21T05:49:32;39.38;;;12.60;;
81697;SDS011;71109;52.514;5.708;2023-11-21T05:51:58;30.27;;;10.30;;
81697;SDS011;71109;52.514;5.708;2023-11-21T05:54:23;37.20;;;11.68;;
81697;SDS011;71109;52.514;5.708;2023-11-21T05:56:49;32.28;;;10.77;;
81697;SDS011;71109;52.514;5.708;2023-11-21T05:59:14;39.88;;;11.15;;
81697;SDS011;71109;52.514;5.708;2023-11-21T06:01:40;29.75;;;10.50;;
81697;SDS011;71109;52.514;5.708;2023-11-21T06:04:05;35.87;;;10.23;;
81697;SDS011;71109;52.514;5.708;2023-11-21T06:06:30;31.90;;;9.52;;
81697;SDS011;71109;52.514;5.708;2023-11-21T06:08:56;34.47;;;10.60;;
81697;SDS011;71109;52.514;5.708;2023-11-21T06:11:22;30.38;;;10.77;;
81697;SDS011;71109;52.514;5.708;2023-11-21T06:13:47;32.92;;;10.50;;
81697;SDS011;71109;52.514;5.708;2023-11-21T06:16:13;31.95;;;10.80;;
81697;SDS011;71109;52.514;5.708;2023-11-21T06:18:41;25.75;;;8.35;;
81697;SDS011;71109;52.514;5.708;2023-11-21T06:21:09;29.10;;;8.73;;
81697;SDS011;71109;52.514;5.708;2023-11-21T06:23:34;25.88;;;8.65;;
81697;SDS011;71109;52.514;5.708;2023-11-21T06:26:00;19.33;;;7.37;;
81697;SDS011;71109;52.514;5.708;2023-11-21T06:28:25;32.42;;;8.57;;
81697;SDS011;71109;52.514;5.708;2023-11-21T06:30:50;27.57;;;7.93;;
81697;SDS011;71109;52.514;5.708;2023-11-21T06:33:15;23.17;;;8.97;;
81697;SDS011;71109;52.514;5.708;2023-11-21T06:35:41;23.77;;;8.73;;
81697;SDS011;71109;52.514;5.708;2023-11-21T06:38:06;20.47;;;7.20;;
81697;SDS011;71109;52.514;5.708;2023-11-21T06:40:32;32.97;;;9.03;;
81697;SDS011;71109;52.514;5.708;2023-11-21T06:42:58;28.25;;;8.00;;
81697;SDS011;71109;52.514;5.708;2023-11-21T06:45:24;35.77;;;7.70;;
81697;SDS011;71109;52.514;5.708;2023-11-21T06:47:49;29.50;;;9.67;;
81697;SDS011;71109;52.514;5.708;2023-11-21T06:50:14;28.73;;;8.35;;
81697;SDS011;71109;52.514;5.708;2023-11-21T06:52:40;29.00;;;8.48;;
81697;SDS011;71109;52.514;5.708;2023-11-21T06:55:05;40.27;;;10.23;;
81697;SDS011;71109;52.514;5.708;2023-11-21T06:57:33;37.78;;;10.07;;
81697;SDS011;71109;52.514;5.708;2023-11-21T06:59:58;40.42;;;10.35;;
81697;SDS011;71109;52.514;5.708;2023-11-21T07:02:24;47.38;;;12.18;;
81697;SDS011;71109;52.514;5.708;2023-11-21T07:04:49;40.80;;;10.88;;
81697;SDS011;71109;52.514;5.708;2023-11-21T07:07:15;55.40;;;10.48;;
81697;SDS011;71109;52.514;5.708;2023-11-21T07:09:40;51.58;;;12.38;;
81697;SDS011;71109;52.514;5.708;2023-11-21T07:12:06;47.88;;;11.50;;
81697;SDS011;71109;52.514;5.708;2023-11-21T07:14:33;46.13;;;11.75;;
81697;SDS011;71109;52.514;5.708;2023-11-21T07:16:59;42.65;;;11.93;;
81697;SDS011;71109;52.514;5.708;2023-11-21T07:19:24;50.27;;;13.10;;
81697;SDS011;71109;52.514;5.708;2023-11-21T07:21:49;46.65;;;14.68;;
81697;SDS011;71109;52.514;5.708;2023-11-21T07:24:17;46.35;;;13.23;;
81697;SDS011;71109;52.514;5.708;2023-11-21T07:26:43;42.35;;;12.20;;
81697;SDS011;71109;52.514;5.708;2023-11-21T07:29:08;38.85;;;12.90;;
81697;SDS011;71109;52.514;5.708;2023-11-21T07:31:34;49.50;;;12.60;;
81697;SDS011;71109;52.514;5.708;2023-11-21T07:33:59;41.55;;;11.20;;
81697;SDS011;71109;52.514;5.708;2023-11-21T07:36:25;38.83;;;10.80;;
81697;SDS011;71109;52.514;5.708;2023-11-21T07:38:51;28.38;;;10.95;;
81697;SDS011;71109;52.514;5.708;2023-11-21T07:41:17;32.27;;;10.90;;
81697;SDS011;71109;52.514;5.708;2023-11-21T07:43:45;31.92;;;10.23;;
81697;SDS011;71109;52.514;5.708;2023-11-21T07:46:11;36.97;;;11.52;;
81697;SDS011;71109;52.514;5.708;2023-11-21T07:48:39;38.22;;;12.68;;
81697;SDS011;71109;52.514;5.708;2023-11-21T07:51:07;42.17;;;10.88;;
81697;SDS011;71109;52.514;5.708;2023-11-21T07:53:33;45.20;;;12.32;;
81697;SDS011;71109;52.514;5.708;2023-11-21T07:56:03;29.67;;;11.05;;
81697;SDS011;71109;52.514;5.708;2023-11-21T07:58:29;50.85;;;14.38;;
81697;SDS011;71109;52.514;5.708;2023-11-21T08:00:54;36.97;;;11.17;;
81697;SDS011;71109;52.514;5.708;2023-11-21T08:03:20;37.30;;;11.23;;
81697;SDS011;71109;52.514;5.708;2023-11-21T08:05:46;54.35;;;10.95;;
81697;SDS011;71109;52.514;5.708;2023-11-21T08:08:11;44.72;;;11.52;;
81697;SDS011;71109;52.514;5.708;2023-11-21T08:10:36;38.00;;;10.17;;
81697;SDS011;71109;52.514;5.708;2023-11-21T08:13:02;43.92;;;11.48;;
81697;SDS011;71109;52.514;5.708;2023-11-21T08:15:28;30.10;;;8.20;;
81697;SDS011;71109;52.514;5.708;2023-11-21T08:17:54;32.83;;;8.95;;
81697;SDS011;71109;52.514;5.708;2023-11-21T08:20:19;28.10;;;9.05;;
81697;SDS011;71109;52.514;5.708;2023-11-21T08:22:45;28.08;;;8.27;;
81697;SDS011;71109;52.514;5.708;2023-11-21T08:25:12;35.63;;;9.02;;
81697;SDS011;71109;52.514;5.708;2023-11-21T08:27:38;32.05;;;8.95;;
81697;SDS011;71109;52.514;5.708;2023-11-21T08:30:04;30.42;;;8.00;;
81697;SDS011;71109;52.514;5.708;2023-11-21T08:32:29;30.35;;;9.50;;
81697;SDS011;71109;52.514;5.708;2023-11-21T08:34:58;37.28;;;10.35;;
81697;SDS011;71109;52.514;5.708;2023-11-21T08:37:24;29.42;;;8.90;;
81697;SDS011;71109;52.514;5.708;2023-11-21T08:39:50;39.25;;;9.30;;
81697;SDS011;71109;52.514;5.708;2023-11-21T08:42:17;39.53;;;10.02;;
81697;SDS011;71109;52.514;5.708;2023-11-21T08:44:43;38.28;;;10.05;;
81697;SDS011;71109;52.514;5.708;2023-11-21T08:47:08;41.13;;;10.90;;
81697;SDS011;71109;52.514;5.708;2023-11-21T08:49:34;47.23;;;12.13;;
81697;SDS011;71109;52.514;5.708;2023-11-21T08:51:59;41.70;;;13.18;;
81697;SDS011;71109;52.514;5.708;2023-11-21T08:54:25;41.73;;;13.13;;
81697;SDS011;71109;52.514;5.708;2023-11-21T08:56:53;40.58;;;12.02;;
81697;SDS011;71109;52.514;5.708;2023-11-21T08:59:19;41.35;;;11.95;;
81697;SDS011;71109;52.514;5.708;2023-11-21T09:01:45;36.03;;;11.45;;
81697;SDS011;71109;52.514;5.708;2023-11-21T09:04:11;37.65;;;11.07;;
81697;SDS011;71109;52.514;5.708;2023-11-21T09:06:37;36.20;;;11.75;;
81697;SDS011;71109;52.514;5.708;2023-11-21T09:09:03;41.60;;;12.38;;
81697;SDS011;71109;52.514;5.708;2023-11-21T09:11:30;45.72;;;10.38;;
81697;SDS011;71109;52.514;5.708;2023-11-21T09:13:58;37.60;;;11.52;;
81697;SDS011;71109;52.514;5.708;2023-11-21T09:16:24;39.88;;;10.60;;
81697;SDS011;71109;52.514;5.708;2023-11-21T09:18:49;39.83;;;11.25;;
81697;SDS011;71109;52.514;5.708;2023-11-21T09:21:15;35.83;;;9.82;;
81697;SDS011;71109;52.514;5.708;2023-11-21T09:23:40;35.93;;;10.37;;
81697;SDS011;71109;52.514;5.708;2023-11-21T09:26:06;39.95;;;11.27;;
81697;SDS011;71109;52.514;5.708;2023-11-21T09:28:31;45.50;;;11.52;;
81697;SDS011;71109;52.514;5.708;2023-11-21T09:30:57;29.83;;;9.13;;
81697;SDS011;71109;52.514;5.708;2023-11-21T09:33:22;30.03;;;10.13;;
81697;SDS011;71109;52.514;5.708;2023-11-21T09:35:49;31.10;;;10.07;;
81697;SDS011;71109;52.514;5.708;2023-11-21T09:38:15;28.70;;;9.55;;
81697;SDS011;71109;52.514;5.708;2023-11-21T09:40:41;27.80;;;8.63;;
81697;SDS011;71109;52.514;5.708;2023-11-21T09:43:08;26.90;;;8.17;;
81697;SDS011;71109;52.514;5.708;2023-11-21T09:45:41;26.00;;;8.80;;
81697;SDS011;71109;52.514;5.708;2023-11-21T09:48:10;25.23;;;8.73;;
81697;SDS011;71109;52.514;5.708;2023-11-21T09:50:36;26.90;;;9.18;;
81697;SDS011;71109;52.514;5.708;2023-11-21T09:53:13;24.52;;;8.40;;
81697;SDS011;71109;52.514;5.708;2023-11-21T09:55:45;27.08;;;9.23;;
81697;SDS011;71109;52.514;5.708;2023-11-21T09:58:11;22.58;;;8.15;;
81697;SDS011;71109;52.514;5.708;2023-11-21T10:00:45;31.42;;;9.55;;
81697;SDS011;71109;52.514;5.708;2023-11-21T10:03:11;30.05;;;9.68;;
81697;SDS011;71109;52.514;5.708;2023-11-21T10:05:38;36.58;;;10.40;;
81697;SDS011;71109;52.514;5.708;2023-11-21T10:08:07;25.63;;;9.70;;
81697;SDS011;71109;52.514;5.708;2023-11-21T10:10:35;28.65;;;10.43;;
81697;SDS011;71109;52.514;5.708;2023-11-21T10:13:02;30.35;;;11.18;;
81697;SDS011;71109;52.514;5.708;2023-11-21T10:15:35;33.42;;;9.55;;
81697;SDS011;71109;52.514;5.708;2023-11-21T10:18:04;30.38;;;10.48;;
81697;SDS011;71109;52.514;5.708;2023-11-21T10:20:32;28.55;;;10.82;;
81697;SDS011;71109;52.514;5.708;2023-11-21T10:23:03;28.23;;;10.50;;
81697;SDS011;71109;52.514;5.708;2023-11-21T10:25:29;30.58;;;11.60;;
81697;SDS011;71109;52.514;5.708;2023-11-21T10:27:58;35.58;;;11.43;;
81697;SDS011;71109;52.514;5.708;2023-11-21T10:30:32;32.53;;;10.93;;
81697;SDS011;71109;52.514;5.708;2023-11-21T10:33:03;30.35;;;11.43;;
81697;SDS011;71109;52.514;5.708;2023-11-21T10:38:26;37.03;;;11.52;;
81697;SDS011;71109;52.514;5.708;2023-11-21T10:40:53;34.15;;;12.48;;
81697;SDS011;71109;52.514;5.708;2023-11-21T10:43:19;31.35;;;11.50;;
81697;SDS011;71109;52.514;5.708;2023-11-21T10:45:49;31.40;;;12.77;;
81697;SDS011;71109;52.514;5.708;2023-11-21T10:48:15;32.87;;;10.60;;
81697;SDS011;71109;52.514;5.708;2023-11-21T10:50:40;34.67;;;12.15;;
81697;SDS011;71109;52.514;5.708;2023-11-21T10:53:06;31.52;;;11.80;;
81697;SDS011;71109;52.514;5.708;2023-11-21T10:55:33;30.63;;;10.70;;
81697;SDS011;71109;52.514;5.708;2023-11-21T10:57:59;33.13;;;10.45;;
81697;SDS011;71109;52.514;5.708;2023-11-21T11:00:27;27.65;;;9.25;;
81697;SDS011;71109;52.514;5.708;2023-11-21T11:02:53;25.92;;;9.35;;
81697;SDS011;71109;52.514;5.708;2023-11-21T11:05:23;20.80;;;8.52;;
81697;SDS011;71109;52.514;5.708;2023-11-21T11:07:56;23.25;;;7.88;;
81697;SDS011;71109;52.514;5.708;2023-11-21T11:10:27;20.10;;;6.35;;
81697;SDS011;71109;52.514;5.708;2023-11-21T11:12:54;27.20;;;9.02;;
81697;SDS011;71109;52.514;5.708;2023-11-21T11:15:20;24.52;;;7.28;;
81697;SDS011;71109;52.514;5.708;2023-11-21T11:17:46;24.73;;;8.20;;
81697;SDS011;71109;52.514;5.708;2023-11-21T11:20:14;22.38;;;8.00;;
81697;SDS011;71109;52.514;5.708;2023-11-21T11:23:04;21.20;;;7.57;;
81697;SDS011;71109;52.514;5.708;2023-11-21T11:36:09;18.48;;;6.72;;
81697;SDS011;71109;52.514;5.708;2023-11-21T11:38:38;19.27;;;6.65;;
81697;SDS011;71109;52.514;5.708;2023-11-21T11:41:04;20.10;;;6.30;;
81697;SDS011;71109;52.514;5.708;2023-11-21T11:43:32;26.10;;;8.48;;
81697;SDS011;71109;52.514;5.708;2023-11-21T11:46:02;22.77;;;7.18;;
81697;SDS011;71109;52.514;5.708;2023-11-21T11:48:28;25.48;;;8.05;;
81697;SDS011;71109;52.514;5.708;2023-11-21T11:51:00;26.33;;;7.68;;
81697;SDS011;71109;52.514;5.708;2023-11-21T11:53:33;34.42;;;8.68;;
81697;SDS011;71109;52.514;5.708;2023-11-21T11:56:21;26.60;;;8.35;;
81697;SDS011;71109;52.514;5.708;2023-11-21T11:58:54;26.05;;;8.00;;
81697;SDS011;71109;52.514;5.708;2023-11-21T12:01:21;27.45;;;9.40;;
81697;SDS011;71109;52.514;5.708;2023-11-21T12:06:45;35.55;;;10.55;;
81697;SDS011;71109;52.514;5.708;2023-11-21T12:09:23;35.13;;;13.00;;
81697;SDS011;71109;52.514;5.708;2023-11-21T12:11:51;37.17;;;11.40;;
81697;SDS011;71109;52.514;5.708;2023-11-21T12:14:17;40.42;;;12.13;;
81697;SDS011;71109;52.514;5.708;2023-11-21T12:16:43;48.67;;;13.98;;
81697;SDS011;71109;52.514;5.708;2023-11-21T12:19:11;33.38;;;11.45;;
81697;SDS011;71109;52.514;5.708;2023-11-21T12:21:37;33.30;;;12.90;;
81697;SDS011;71109;52.514;5.708;2023-11-21T12:24:03;36.95;;;12.50;;
81697;SDS011;71109;52.514;5.708;2023-11-21T12:26:29;39.90;;;12.30;;
81697;SDS011;71109;52.514;5.708;2023-11-21T12:28:54;38.80;;;13.73;;
81697;SDS011;71109;52.514;5.708;2023-11-21T12:31:22;36.60;;;12.60;;
81697;SDS011;71109;52.514;5.708;2023-11-21T12:33:48;31.67;;;11.75;;
81697;SDS011;71109;52.514;5.708;2023-11-21T12:36:13;32.50;;;12.88;;
81697;SDS011;71109;52.514;5.708;2023-11-21T12:38:40;38.10;;;13.27;;
81697;SDS011;71109;52.514;5.708;2023-11-21T12:41:05;40.90;;;13.95;;
81697;SDS011;71109;52.514;5.708;2023-11-21T12:43:34;35.83;;;12.73;;
81697;SDS011;71109;52.514;5.708;2023-11-21T12:46:06;40.20;;;13.70;;
81697;SDS011;71109;52.514;5.708;2023-11-21T12:48:32;36.63;;;13.18;;
81697;SDS011;71109;52.514;5.708;2023-11-21T12:50:58;41.35;;;13.82;;
81697;SDS011;71109;52.514;5.708;2023-11-21T12:53:25;40.58;;;15.43;;
81697;SDS011;71109;52.514;5.708;2023-11-21T12:55:51;39.13;;;14.65;;
81697;SDS011;71109;52.514;5.708;2023-11-21T12:58:16;36.30;;;14.55;;
81697;SDS011;71109;52.514;5.708;2023-11-21T13:00:45;38.33;;;14.50;;
81697;SDS011;71109;52.514;5.708;2023-11-21T13:03:12;31.40;;;13.38;;
81697;SDS011;71109;52.514;5.708;2023-11-21T13:05:42;44.60;;;16.92;;
81697;SDS011;71109;52.514;5.708;2023-11-21T13:08:12;33.10;;;13.40;;
81697;SDS011;71109;52.514;5.708;2023-11-21T13:10:43;40.00;;;15.07;;
81697;SDS011;71109;52.514;5.708;2023-11-21T13:13:11;32.90;;;13.35;;
81697;SDS011;71109;52.514;5.708;2023-11-21T13:15:47;33.60;;;13.40;;
81697;SDS011;71109;52.514;5.708;2023-11-21T13:18:12;34.70;;;13.38;;
81697;SDS011;71109;52.514;5.708;2023-11-21T13:20:38;39.73;;;14.77;;
81697;SDS011;71109;52.514;5.708;2023-11-21T13:23:07;39.03;;;14.80;;
81697;SDS011;71109;52.514;5.708;2023-11-21T13:25:33;37.28;;;16.42;;
81697;SDS011;71109;52.514;5.708;2023-11-21T13:27:59;39.15;;;14.48;;
81697;SDS011;71109;52.514;5.708;2023-11-21T13:30:25;33.33;;;14.27;;
81697;SDS011;71109;52.514;5.708;2023-11-21T13:32:52;31.08;;;14.02;;
81697;SDS011;71109;52.514;5.708;2023-11-21T13:35:22;29.80;;;13.23;;
81697;SDS011;71109;52.514;5.708;2023-11-21T13:37:55;34.05;;;14.40;;
81697;SDS011;71109;52.514;5.708;2023-11-21T13:40:22;30.17;;;14.20;;
81697;SDS011;71109;52.514;5.708;2023-11-21T13:42:52;26.88;;;13.93;;
81697;SDS011;71109;52.514;5.708;2023-11-21T13:45:19;25.88;;;13.60;;
81697;SDS011;71109;52.514;5.708;2023-11-21T13:47:48;24.08;;;11.15;;
81697;SDS011;71109;52.514;5.708;2023-11-21T13:50:17;21.48;;;11.90;;
81697;SDS011;71109;52.514;5.708;2023-11-21T13:52:47;19.35;;;11.15;;
81697;SDS011;71109;52.514;5.708;2023-11-21T13:55:14;21.98;;;11.38;;
81697;SDS011;71109;52.514;5.708;2023-11-21T13:57:40;23.05;;;10.63;;
81697;SDS011;71109;52.514;5.708;2023-11-21T14:00:08;17.25;;;10.10;;
81697;SDS011;71109;52.514;5.708;2023-11-21T14:02:51;18.90;;;10.20;;
81697;SDS011;71109;52.514;5.708;2023-11-21T14:05:16;19.25;;;10.80;;
81697;SDS011;71109;52.514;5.708;2023-11-21T14:07:48;21.73;;;10.48;;
81697;SDS011;71109;52.514;5.708;2023-11-21T14:10:14;17.17;;;9.37;;
81697;SDS011;71109;52.514;5.708;2023-11-21T14:12:41;14.90;;;8.77;;
81697;SDS011;71109;52.514;5.708;2023-11-21T14:15:07;14.32;;;7.63;;
81697;SDS011;71109;52.514;5.708;2023-11-21T14:17:34;12.55;;;7.72;;
81697;SDS011;71109;52.514;5.708;2023-11-21T14:20:00;16.38;;;7.65;;
81697;SDS011;71109;52.514;5.708;2023-11-21T14:22:30;15.05;;;8.20;;
81697;SDS011;71109;52.514;5.708;2023-11-21T14:24:56;15.52;;;8.23;;
81697;SDS011;71109;52.514;5.708;2023-11-21T14:27:24;15.23;;;8.13;;
81697;SDS011;71109;52.514;5.708;2023-11-21T14:29:50;19.98;;;7.95;;
81697;SDS011;71109;52.514;5.708;2023-11-21T14:32:15;16.60;;;8.57;;
81697;SDS011;71109;52.514;5.708;2023-11-21T14:34:41;16.15;;;8.20;;
81697;SDS011;71109;52.514;5.708;2023-11-21T14:37:10;17.15;;;9.48;;